sensor_id;sensor_type;location;lat;lon;timestamp;P1;durP1;ratioP1;P2;durP2;ratioP2
18338;SDS011;9295;44.484;11.240;2023-11-18T00:01:36;4.07;;;2.50;;
18338;SDS011;9295;44.484;11.240;2023-11-18T00:04:05;4.83;;;2.40;;
18338;SDS011;9295;44.484;11.240;2023-11-18T00:06:44;4.47;;;2.30;;
18338;SDS011;9295;44.484;11.240;2023-11-18T00:09:13;5.60;;;2.20;;
18338;SDS011;9295;44.484;11.240;2023-11-18T00:11:42;3.20;;;2.10;;
18338;SDS011;9295;44.484;11.240;2023-11-18T00:14:10;4.60;;;2.63;;
18338;SDS011;9295;44.484;11.240;2023-11-18T00:16:40;7.60;;;2.47;;
18338;SDS011;9295;44.484;11.240;2023-11-18T00:19:09;4.63;;;2.57;;
18338;SDS011;9295;44.484;11.240;2023-11-18T00:21:37;4.37;;;2.23;;
18338;SDS011;9295;44.484;11.240;2023-11-18T00:24:08;3.90;;;2.20;;
18338;SDS011;9295;44.484;11.240;2023-11-18T00:26:36;4.10;;;2.33;;
18338;SDS011;9295;44.484;11.240;2023-11-18T00:29:05;4.60;;;2.23;;
18338;SDS011;9295;44.484;11.240;2023-11-18T00:31:34;3.80;;;2.40;;
18338;SDS011;9295;44.484;11.240;2023-11-18T00:34:03;5.20;;;2.30;;
18338;SDS011;9295;44.484;11.240;2023-11-18T00:36:32;4.17;;;2.20;;
18338;SDS011;9295;44.484;11.240;2023-11-18T00:39:00;8.33;;;2.37;;
18338;SDS011;9295;44.484;11.240;2023-11-18T00:41:33;5.40;;;3.03;;
18338;SDS011;9295;44.484;11.240;2023-11-18T00:44:02;4.70;;;2.00;;
18338;SDS011;9295;44.484;11.240;2023-11-18T00:46:31;6.13;;;2.60;;
18338;SDS011;9295;44.484;11.240;2023-11-18T00:49:02;4.07;;;2.13;;
18338;SDS011;9295;44.484;11.240;2023-11-18T00:51:33;3.40;;;2.10;;
18338;SDS011;9295;44.484;11.240;2023-11-18T00:54:02;10.57;;;3.63;;
18338;SDS011;9295;44.484;11.240;2023-11-18T00:56:33;3.40;;;2.00;;
18338;SDS011;9295;44.484;11.240;2023-11-18T00:59:02;4.97;;;2.03;;
18338;SDS011;9295;44.484;11.240;2023-11-18T01:01:33;3.30;;;1.90;;
18338;SDS011;9295;44.484;11.240;2023-11-18T01:04:02;3.67;;;2.00;;
18338;SDS011;9295;44.484;11.240;2023-11-18T01:06:32;3.90;;;2.20;;
18338;SDS011;9295;44.484;11.240;2023-11-18T01:09:01;4.67;;;2.00;;
18338;SDS011;9295;44.484;11.240;2023-11-18T01:11:30;3.53;;;2.17;;
18338;SDS011;9295;44.484;11.240;2023-11-18T01:14:00;4.30;;;2.13;;
18338;SDS011;9295;44.484;11.240;2023-11-18T01:16:29;4.23;;;2.30;;
18338;SDS011;9295;44.484;11.240;2023-11-18T01:18:58;3.73;;;2.40;;
18338;SDS011;9295;44.484;11.240;2023-11-18T01:21:27;9.20;;;2.30;;
18338;SDS011;9295;44.484;11.240;2023-11-18T01:23:55;11.47;;;2.50;;
18338;SDS011;9295;44.484;11.240;2023-11-18T01:26:24;4.70;;;2.43;;
18338;SDS011;9295;44.484;11.240;2023-11-18T01:28:53;4.57;;;2.10;;
18338;SDS011;9295;44.484;11.240;2023-11-18T01:31:23;3.97;;;2.30;;
18338;SDS011;9295;44.484;11.240;2023-11-18T01:33:57;4.80;;;2.10;;
18338;SDS011;9295;44.484;11.240;2023-11-18T01:36:26;5.70;;;2.80;;
18338;SDS011;9295;44.484;11.240;2023-11-18T01:38:55;5.60;;;2.47;;
18338;SDS011;9295;44.484;11.240;2023-11-18T01:41:23;4.93;;;2.40;;
18338;SDS011;9295;44.484;11.240;2023-11-18T01:43:52;3.57;;;2.20;;
18338;SDS011;9295;44.484;11.240;2023-11-18T01:46:21;4.73;;;2.27;;
18338;SDS011;9295;44.484;11.240;2023-11-18T01:48:52;3.73;;;2.30;;
18338;SDS011;9295;44.484;11.240;2023-11-18T01:51:21;4.43;;;2.30;;
18338;SDS011;9295;44.484;11.240;2023-11-18T01:53:50;10.70;;;2.57;;
18338;SDS011;9295;44.484;11.240;2023-11-18T01:56:19;4.23;;;2.57;;
18338;SDS011;9295;44.484;11.240;2023-11-18T01:58:52;4.33;;;2.40;;
18338;SDS011;9295;44.484;11.240;2023-11-18T02:01:21;3.50;;;2.10;;
18338;SDS011;9295;44.484;11.240;2023-11-18T02:03:49;4.10;;;2.30;;
18338;SDS011;9295;44.484;11.240;2023-11-18T02:06:19;4.53;;;2.40;;
18338;SDS011;9295;44.484;11.240;2023-11-18T02:08:48;4.50;;;2.30;;
18338;SDS011;9295;44.484;11.240;2023-11-18T02:11:18;6.10;;;2.87;;
18338;SDS011;9295;44.484;11.240;2023-11-18T02:13:51;6.00;;;2.77;;
18338;SDS011;9295;44.484;11.240;2023-11-18T02:16:23;3.20;;;1.70;;
18338;SDS011;9295;44.484;11.240;2023-11-18T02:18:54;3.43;;;2.10;;
18338;SDS011;9295;44.484;11.240;2023-11-18T02:21:23;3.77;;;2.10;;
18338;SDS011;9295;44.484;11.240;2023-11-18T02:23:53;5.00;;;1.90;;
18338;SDS011;9295;44.484;11.240;2023-11-18T02:26:23;3.80;;;1.87;;
18338;SDS011;9295;44.484;11.240;2023-11-18T02:28:52;12.43;;;2.40;;
18338;SDS011;9295;44.484;11.240;2023-11-18T02:31:22;4.63;;;2.77;;
18338;SDS011;9295;44.484;11.240;2023-11-18T02:34:00;4.87;;;2.20;;
18338;SDS011;9295;44.484;11.240;2023-11-18T02:39:25;9.10;;;3.83;;
18338;SDS011;9295;44.484;11.240;2023-11-18T02:41:59;5.73;;;1.87;;
18338;SDS011;9295;44.484;11.240;2023-11-18T02:44:29;3.57;;;1.90;;
18338;SDS011;9295;44.484;11.240;2023-11-18T02:46:59;4.87;;;2.10;;
18338;SDS011;9295;44.484;11.240;2023-11-18T02:49:29;3.37;;;1.93;;
18338;SDS011;9295;44.484;11.240;2023-11-18T02:51:58;3.23;;;1.80;;
18338;SDS011;9295;44.484;11.240;2023-11-18T02:54:27;6.33;;;2.30;;
18338;SDS011;9295;44.484;11.240;2023-11-18T02:56:55;5.73;;;1.70;;
18338;SDS011;9295;44.484;11.240;2023-11-18T02:59:27;3.67;;;2.10;;
18338;SDS011;9295;44.484;11.240;2023-11-18T03:01:57;3.67;;;2.10;;
18338;SDS011;9295;44.484;11.240;2023-11-18T03:04:28;4.83;;;2.03;;
18338;SDS011;9295;44.484;11.240;2023-11-18T03:06:57;4.27;;;2.07;;
18338;SDS011;9295;44.484;11.240;2023-11-18T03:09:26;3.70;;;2.00;;
18338;SDS011;9295;44.484;11.240;2023-11-18T03:11:55;3.60;;;1.80;;
18338;SDS011;9295;44.484;11.240;2023-11-18T03:14:27;3.53;;;2.10;;
18338;SDS011;9295;44.484;11.240;2023-11-18T03:16:56;3.73;;;1.97;;
18338;SDS011;9295;44.484;11.240;2023-11-18T03:19:25;3.83;;;2.20;;
18338;SDS011;9295;44.484;11.240;2023-11-18T03:21:54;4.47;;;2.20;;
18338;SDS011;9295;44.484;11.240;2023-11-18T03:24:22;3.07;;;1.70;;
18338;SDS011;9295;44.484;11.240;2023-11-18T03:26:52;3.67;;;1.90;;
18338;SDS011;9295;44.484;11.240;2023-11-18T03:29:21;3.70;;;2.00;;
18338;SDS011;9295;44.484;11.240;2023-11-18T03:31:52;3.90;;;2.10;;
18338;SDS011;9295;44.484;11.240;2023-11-18T03:34:20;6.10;;;2.07;;
18338;SDS011;9295;44.484;11.240;2023-11-18T03:36:49;5.80;;;2.00;;
18338;SDS011;9295;44.484;11.240;2023-11-18T03:39:18;4.00;;;2.07;;
18338;SDS011;9295;44.484;11.240;2023-11-18T03:41:47;3.70;;;2.03;;
18338;SDS011;9295;44.484;11.240;2023-11-18T03:44:16;4.40;;;1.80;;
18338;SDS011;9295;44.484;11.240;2023-11-18T03:46:45;3.23;;;1.73;;
18338;SDS011;9295;44.484;11.240;2023-11-18T03:49:15;3.23;;;1.90;;
18338;SDS011;9295;44.484;11.240;2023-11-18T03:51:44;2.80;;;1.43;;
18338;SDS011;9295;44.484;11.240;2023-11-18T03:54:13;4.83;;;1.93;;
18338;SDS011;9295;44.484;11.240;2023-11-18T03:56:41;4.47;;;2.27;;
18338;SDS011;9295;44.484;11.240;2023-11-18T03:59:10;3.33;;;2.03;;
18338;SDS011;9295;44.484;11.240;2023-11-18T04:01:39;4.77;;;2.40;;
18338;SDS011;9295;44.484;11.240;2023-11-18T04:04:07;2.67;;;1.63;;
18338;SDS011;9295;44.484;11.240;2023-11-18T04:06:38;3.57;;;1.70;;
18338;SDS011;9295;44.484;11.240;2023-11-18T04:09:06;7.50;;;1.93;;
18338;SDS011;9295;44.484;11.240;2023-11-18T04:11:36;2.73;;;1.63;;
18338;SDS011;9295;44.484;11.240;2023-11-18T04:14:05;4.57;;;1.93;;
18338;SDS011;9295;44.484;11.240;2023-11-18T04:16:34;3.93;;;1.80;;
18338;SDS011;9295;44.484;11.240;2023-11-18T04:19:04;3.00;;;1.57;;
18338;SDS011;9295;44.484;11.240;2023-11-18T04:21:34;3.10;;;1.80;;
18338;SDS011;9295;44.484;11.240;2023-11-18T04:24:04;4.00;;;1.60;;
18338;SDS011;9295;44.484;11.240;2023-11-18T04:26:34;4.03;;;1.80;;
18338;SDS011;9295;44.484;11.240;2023-11-18T04:29:02;5.40;;;1.70;;
18338;SDS011;9295;44.484;11.240;2023-11-18T04:31:31;3.27;;;1.97;;
18338;SDS011;9295;44.484;11.240;2023-11-18T04:34:00;4.47;;;1.53;;
18338;SDS011;9295;44.484;11.240;2023-11-18T04:36:30;3.27;;;1.77;;
18338;SDS011;9295;44.484;11.240;2023-11-18T04:38:59;3.67;;;1.60;;
18338;SDS011;9295;44.484;11.240;2023-11-18T04:41:30;3.00;;;1.40;;
18338;SDS011;9295;44.484;11.240;2023-11-18T04:43:59;3.40;;;2.00;;
18338;SDS011;9295;44.484;11.240;2023-11-18T04:46:28;4.90;;;1.70;;
18338;SDS011;9295;44.484;11.240;2023-11-18T04:48:56;2.97;;;1.63;;
18338;SDS011;9295;44.484;11.240;2023-11-18T04:51:25;3.50;;;1.80;;
18338;SDS011;9295;44.484;11.240;2023-11-18T04:53:54;4.47;;;2.00;;
18338;SDS011;9295;44.484;11.240;2023-11-18T04:56:22;22.17;;;2.20;;
18338;SDS011;9295;44.484;11.240;2023-11-18T04:58:52;8.13;;;2.93;;
18338;SDS011;9295;44.484;11.240;2023-11-18T05:01:21;3.97;;;2.57;;
18338;SDS011;9295;44.484;11.240;2023-11-18T05:03:49;3.27;;;1.80;;
18338;SDS011;9295;44.484;11.240;2023-11-18T05:06:18;6.83;;;2.23;;
18338;SDS011;9295;44.484;11.240;2023-11-18T05:08:46;12.70;;;1.77;;
18338;SDS011;9295;44.484;11.240;2023-11-18T05:11:16;3.33;;;1.70;;
18338;SDS011;9295;44.484;11.240;2023-11-18T05:13:44;3.67;;;1.90;;
18338;SDS011;9295;44.484;11.240;2023-11-18T05:16:14;8.10;;;1.60;;
18338;SDS011;9295;44.484;11.240;2023-11-18T05:18:43;2.70;;;1.60;;
18338;SDS011;9295;44.484;11.240;2023-11-18T05:21:12;3.17;;;1.70;;
18338;SDS011;9295;44.484;11.240;2023-11-18T05:23:40;3.90;;;1.93;;
18338;SDS011;9295;44.484;11.240;2023-11-18T05:26:09;2.60;;;1.70;;
18338;SDS011;9295;44.484;11.240;2023-11-18T05:28:37;3.93;;;1.73;;
18338;SDS011;9295;44.484;11.240;2023-11-18T05:31:06;4.60;;;1.70;;
18338;SDS011;9295;44.484;11.240;2023-11-18T05:33:36;3.53;;;1.67;;
18338;SDS011;9295;44.484;11.240;2023-11-18T05:36:06;2.93;;;1.50;;
18338;SDS011;9295;44.484;11.240;2023-11-18T05:38:35;3.40;;;1.73;;
18338;SDS011;9295;44.484;11.240;2023-11-18T05:41:04;3.40;;;1.60;;
18338;SDS011;9295;44.484;11.240;2023-11-18T05:43:43;2.70;;;1.50;;
18338;SDS011;9295;44.484;11.240;2023-11-18T05:46:18;3.40;;;1.40;;
18338;SDS011;9295;44.484;11.240;2023-11-18T05:48:51;3.33;;;1.90;;
18338;SDS011;9295;44.484;11.240;2023-11-18T05:51:20;2.67;;;1.50;;
18338;SDS011;9295;44.484;11.240;2023-11-18T05:53:50;5.20;;;2.10;;
18338;SDS011;9295;44.484;11.240;2023-11-18T05:56:19;3.33;;;1.70;;
18338;SDS011;9295;44.484;11.240;2023-11-18T05:58:50;3.47;;;1.57;;
18338;SDS011;9295;44.484;11.240;2023-11-18T06:01:20;9.23;;;1.80;;
18338;SDS011;9295;44.484;11.240;2023-11-18T06:03:51;4.13;;;1.70;;
18338;SDS011;9295;44.484;11.240;2023-11-18T06:06:20;3.60;;;1.70;;
18338;SDS011;9295;44.484;11.240;2023-11-18T06:08:50;6.73;;;2.10;;
18338;SDS011;9295;44.484;11.240;2023-11-18T06:11:20;3.10;;;1.73;;
18338;SDS011;9295;44.484;11.240;2023-11-18T06:13:50;3.97;;;1.70;;
18338;SDS011;9295;44.484;11.240;2023-11-18T06:16:20;3.33;;;2.00;;
18338;SDS011;9295;44.484;11.240;2023-11-18T06:18:53;4.57;;;1.90;;
18338;SDS011;9295;44.484;11.240;2023-11-18T06:21:23;2.80;;;1.60;;
18338;SDS011;9295;44.484;11.240;2023-11-18T06:23:55;4.27;;;2.03;;
18338;SDS011;9295;44.484;11.240;2023-11-18T06:26:25;4.73;;;1.93;;
18338;SDS011;9295;44.484;11.240;2023-11-18T06:28:54;4.33;;;2.17;;
18338;SDS011;9295;44.484;11.240;2023-11-18T06:31:23;8.20;;;1.70;;
18338;SDS011;9295;44.484;11.240;2023-11-18T06:33:53;3.13;;;1.67;;
18338;SDS011;9295;44.484;11.240;2023-11-18T06:36:22;2.90;;;1.67;;
18338;SDS011;9295;44.484;11.240;2023-11-18T06:38:53;4.20;;;2.20;;
18338;SDS011;9295;44.484;11.240;2023-11-18T06:41:23;3.57;;;1.87;;
18338;SDS011;9295;44.484;11.240;2023-11-18T06:43:53;4.20;;;1.87;;
18338;SDS011;9295;44.484;11.240;2023-11-18T06:46:28;4.00;;;1.60;;
18338;SDS011;9295;44.484;11.240;2023-11-18T06:49:02;3.90;;;2.00;;
18338;SDS011;9295;44.484;11.240;2023-11-18T06:51:34;5.13;;;2.67;;
18338;SDS011;9295;44.484;11.240;2023-11-18T06:54:05;5.80;;;2.00;;
18338;SDS011;9295;44.484;11.240;2023-11-18T06:56:39;4.03;;;2.10;;
18338;SDS011;9295;44.484;11.240;2023-11-18T06:59:10;2.67;;;1.60;;
18338;SDS011;9295;44.484;11.240;2023-11-18T07:01:42;4.20;;;1.77;;
18338;SDS011;9295;44.484;11.240;2023-11-18T07:04:14;3.63;;;1.90;;
18338;SDS011;9295;44.484;11.240;2023-11-18T07:06:42;9.07;;;2.00;;
18338;SDS011;9295;44.484;11.240;2023-11-18T07:09:11;5.83;;;1.90;;
18338;SDS011;9295;44.484;11.240;2023-11-18T07:11:45;4.33;;;1.90;;
18338;SDS011;9295;44.484;11.240;2023-11-18T07:14:15;3.57;;;2.20;;
18338;SDS011;9295;44.484;11.240;2023-11-18T07:16:44;4.43;;;2.13;;
18338;SDS011;9295;44.484;11.240;2023-11-18T07:19:14;5.00;;;2.30;;
18338;SDS011;9295;44.484;11.240;2023-11-18T07:21:48;8.10;;;2.13;;
18338;SDS011;9295;44.484;11.240;2023-11-18T07:24:17;5.60;;;2.90;;
18338;SDS011;9295;44.484;11.240;2023-11-18T07:26:47;9.57;;;6.10;;
18338;SDS011;9295;44.484;11.240;2023-11-18T07:29:18;8.60;;;6.40;;
18338;SDS011;9295;44.484;11.240;2023-11-18T07:31:47;10.70;;;5.80;;
18338;SDS011;9295;44.484;11.240;2023-11-18T07:34:20;11.30;;;6.13;;
18338;SDS011;9295;44.484;11.240;2023-11-18T07:36:50;5.70;;;3.40;;
18338;SDS011;9295;44.484;11.240;2023-11-18T07:39:19;5.67;;;3.40;;
18338;SDS011;9295;44.484;11.240;2023-11-18T07:41:51;4.40;;;2.50;;
18338;SDS011;9295;44.484;11.240;2023-11-18T07:44:28;5.40;;;2.60;;
18338;SDS011;9295;44.484;11.240;2023-11-18T07:47:00;3.93;;;2.63;;
18338;SDS011;9295;44.484;11.240;2023-11-18T07:49:30;4.47;;;2.50;;
18338;SDS011;9295;44.484;11.240;2023-11-18T07:52:00;4.77;;;2.67;;
18338;SDS011;9295;44.484;11.240;2023-11-18T07:54:29;4.20;;;2.50;;
18338;SDS011;9295;44.484;11.240;2023-11-18T07:56:58;4.23;;;2.10;;
18338;SDS011;9295;44.484;11.240;2023-11-18T07:59:27;6.37;;;1.97;;
18338;SDS011;9295;44.484;11.240;2023-11-18T08:01:56;4.50;;;2.40;;
18338;SDS011;9295;44.484;11.240;2023-11-18T08:04:24;4.97;;;2.50;;
18338;SDS011;9295;44.484;11.240;2023-11-18T08:06:54;4.37;;;2.67;;
18338;SDS011;9295;44.484;11.240;2023-11-18T08:09:23;5.00;;;2.70;;
18338;SDS011;9295;44.484;11.240;2023-11-18T08:11:52;6.70;;;2.63;;
18338;SDS011;9295;44.484;11.240;2023-11-18T08:14:22;3.63;;;2.20;;
18338;SDS011;9295;44.484;11.240;2023-11-18T08:16:51;5.70;;;2.67;;
18338;SDS011;9295;44.484;11.240;2023-11-18T08:19:20;4.50;;;2.87;;
18338;SDS011;9295;44.484;11.240;2023-11-18T08:21:49;6.13;;;2.60;;
18338;SDS011;9295;44.484;11.240;2023-11-18T08:24:20;3.87;;;2.63;;
18338;SDS011;9295;44.484;11.240;2023-11-18T08:26:50;8.27;;;2.37;;
18338;SDS011;9295;44.484;11.240;2023-11-18T08:29:18;3.67;;;2.00;;
18338;SDS011;9295;44.484;11.240;2023-11-18T08:31:48;5.57;;;2.20;;
18338;SDS011;9295;44.484;11.240;2023-11-18T08:34:16;8.20;;;1.90;;
18338;SDS011;9295;44.484;11.240;2023-11-18T08:36:46;10.60;;;2.20;;
18338;SDS011;9295;44.484;11.240;2023-11-18T08:39:14;3.70;;;2.00;;
18338;SDS011;9295;44.484;11.240;2023-11-18T08:41:44;10.00;;;2.10;;
18338;SDS011;9295;44.484;11.240;2023-11-18T08:44:13;4.03;;;2.20;;
18338;SDS011;9295;44.484;11.240;2023-11-18T08:46:50;5.03;;;1.90;;
18338;SDS011;9295;44.484;11.240;2023-11-18T08:49:20;18.23;;;1.90;;
18338;SDS011;9295;44.484;11.240;2023-11-18T08:51:49;3.97;;;2.20;;
18338;SDS011;9295;44.484;11.240;2023-11-18T08:54:23;5.37;;;1.90;;
18338;SDS011;9295;44.484;11.240;2023-11-18T08:57:05;6.33;;;1.77;;
18338;SDS011;9295;44.484;11.240;2023-11-18T08:59:50;4.90;;;2.47;;
18338;SDS011;9295;44.484;11.240;2023-11-18T09:02:19;8.37;;;2.73;;
18338;SDS011;9295;44.484;11.240;2023-11-18T09:04:50;10.50;;;1.90;;
18338;SDS011;9295;44.484;11.240;2023-11-18T09:07:22;5.47;;;2.53;;
18338;SDS011;9295;44.484;11.240;2023-11-18T09:09:51;6.03;;;3.10;;
18338;SDS011;9295;44.484;11.240;2023-11-18T09:12:21;4.20;;;2.10;;
18338;SDS011;9295;44.484;11.240;2023-11-18T09:14:51;5.20;;;1.90;;
18338;SDS011;9295;44.484;11.240;2023-11-18T09:17:20;3.40;;;1.53;;
18338;SDS011;9295;44.484;11.240;2023-11-18T09:19:49;3.63;;;1.83;;
18338;SDS011;9295;44.484;11.240;2023-11-18T09:22:19;4.57;;;2.00;;
18338;SDS011;9295;44.484;11.240;2023-11-18T09:24:49;2.47;;;1.37;;
18338;SDS011;9295;44.484;11.240;2023-11-18T09:27:18;3.57;;;1.53;;
18338;SDS011;9295;44.484;11.240;2023-11-18T09:29:48;2.50;;;1.37;;
18338;SDS011;9295;44.484;11.240;2023-11-18T09:32:16;2.80;;;1.50;;
18338;SDS011;9295;44.484;11.240;2023-11-18T09:34:45;4.50;;;1.90;;
18338;SDS011;9295;44.484;11.240;2023-11-18T09:37:15;3.40;;;1.90;;
18338;SDS011;9295;44.484;11.240;2023-11-18T09:39:43;6.70;;;2.60;;
18338;SDS011;9295;44.484;11.240;2023-11-18T09:42:12;4.27;;;2.20;;
18338;SDS011;9295;44.484;11.240;2023-11-18T09:44:48;4.70;;;1.93;;
18338;SDS011;9295;44.484;11.240;2023-11-18T09:47:17;4.40;;;2.03;;
18338;SDS011;9295;44.484;11.240;2023-11-18T09:49:52;4.47;;;1.70;;
18338;SDS011;9295;44.484;11.240;2023-11-18T09:52:24;3.00;;;1.60;;
18338;SDS011;9295;44.484;11.240;2023-11-18T09:54:55;4.80;;;1.70;;
18338;SDS011;9295;44.484;11.240;2023-11-18T09:57:31;2.50;;;1.60;;
18338;SDS011;9295;44.484;11.240;2023-11-18T10:00:06;2.60;;;1.40;;
18338;SDS011;9295;44.484;11.240;2023-11-18T10:02:48;3.23;;;1.90;;
18338;SDS011;9295;44.484;11.240;2023-11-18T10:05:19;3.47;;;2.00;;
18338;SDS011;9295;44.484;11.240;2023-11-18T10:07:49;3.13;;;1.80;;
18338;SDS011;9295;44.484;11.240;2023-11-18T10:10:19;4.60;;;1.93;;
18338;SDS011;9295;44.484;11.240;2023-11-18T10:12:49;2.80;;;1.73;;
18338;SDS011;9295;44.484;11.240;2023-11-18T10:15:22;2.80;;;1.80;;
18338;SDS011;9295;44.484;11.240;2023-11-18T10:17:51;4.63;;;1.83;;
18338;SDS011;9295;44.484;11.240;2023-11-18T10:20:42;6.20;;;2.00;;
18338;SDS011;9295;44.484;11.240;2023-11-18T10:23:13;3.23;;;1.90;;
18338;SDS011;9295;44.484;11.240;2023-11-18T10:25:46;4.17;;;2.10;;
18338;SDS011;9295;44.484;11.240;2023-11-18T10:28:25;4.50;;;2.53;;
18338;SDS011;9295;44.484;11.240;2023-11-18T10:30:57;4.77;;;2.43;;
18338;SDS011;9295;44.484;11.240;2023-11-18T10:33:30;4.60;;;2.33;;
18338;SDS011;9295;44.484;11.240;2023-11-18T10:35:59;4.30;;;2.27;;
18338;SDS011;9295;44.484;11.240;2023-11-18T10:38:31;6.00;;;2.70;;
18338;SDS011;9295;44.484;11.240;2023-11-18T10:41:03;7.30;;;2.20;;
18338;SDS011;9295;44.484;11.240;2023-11-18T10:43:33;7.53;;;2.30;;
18338;SDS011;9295;44.484;11.240;2023-11-18T10:46:08;5.70;;;2.50;;
18338;SDS011;9295;44.484;11.240;2023-11-18T10:48:40;4.43;;;2.10;;
18338;SDS011;9295;44.484;11.240;2023-11-18T10:51:10;6.23;;;2.50;;
18338;SDS011;9295;44.484;11.240;2023-11-18T10:53:40;4.60;;;2.33;;
18338;SDS011;9295;44.484;11.240;2023-11-18T10:56:21;3.80;;;1.90;;
18338;SDS011;9295;44.484;11.240;2023-11-18T10:58:55;4.20;;;2.27;;
18338;SDS011;9295;44.484;11.240;2023-11-18T11:01:29;4.40;;;1.80;;
18338;SDS011;9295;44.484;11.240;2023-11-18T11:03:59;3.10;;;1.83;;
18338;SDS011;9295;44.484;11.240;2023-11-18T11:06:32;7.53;;;1.93;;
18338;SDS011;9295;44.484;11.240;2023-11-18T11:09:01;7.10;;;2.10;;
18338;SDS011;9295;44.484;11.240;2023-11-18T11:11:39;3.53;;;2.10;;
18338;SDS011;9295;44.484;11.240;2023-11-18T11:14:14;3.27;;;2.00;;
18338;SDS011;9295;44.484;11.240;2023-11-18T11:16:47;5.07;;;1.70;;
18338;SDS011;9295;44.484;11.240;2023-11-18T11:19:24;8.50;;;2.53;;
18338;SDS011;9295;44.484;11.240;2023-11-18T11:21:55;4.30;;;2.20;;
18338;SDS011;9295;44.484;11.240;2023-11-18T11:24:39;3.70;;;2.00;;
18338;SDS011;9295;44.484;11.240;2023-11-18T11:27:17;6.57;;;2.37;;
18338;SDS011;9295;44.484;11.240;2023-11-18T11:30:05;4.50;;;2.20;;
18338;SDS011;9295;44.484;11.240;2023-11-18T11:32:43;2.90;;;1.90;;
18338;SDS011;9295;44.484;11.240;2023-11-18T11:35:18;3.60;;;2.00;;
18338;SDS011;9295;44.484;11.240;2023-11-18T11:37:52;3.20;;;1.97;;
18338;SDS011;9295;44.484;11.240;2023-11-18T11:40:30;4.40;;;1.80;;
18338;SDS011;9295;44.484;11.240;2023-11-18T11:43:01;2.90;;;1.70;;
18338;SDS011;9295;44.484;11.240;2023-11-18T11:45:32;3.97;;;1.90;;
18338;SDS011;9295;44.484;11.240;2023-11-18T11:48:04;3.07;;;1.77;;
18338;SDS011;9295;44.484;11.240;2023-11-18T11:50:54;4.53;;;1.60;;
18338;SDS011;9295;44.484;11.240;2023-11-18T11:53:32;5.27;;;2.00;;
18338;SDS011;9295;44.484;11.240;2023-11-18T11:56:06;3.70;;;1.90;;
18338;SDS011;9295;44.484;11.240;2023-11-18T11:58:41;3.30;;;1.90;;
18338;SDS011;9295;44.484;11.240;2023-11-18T12:01:15;5.37;;;2.27;;
18338;SDS011;9295;44.484;11.240;2023-11-18T12:03:53;9.90;;;1.90;;
18338;SDS011;9295;44.484;11.240;2023-11-18T12:06:26;4.70;;;2.20;;
18338;SDS011;9295;44.484;11.240;2023-11-18T12:08:56;4.00;;;2.13;;
18338;SDS011;9295;44.484;11.240;2023-11-18T12:11:25;6.43;;;1.97;;
18338;SDS011;9295;44.484;11.240;2023-11-18T12:14:02;3.63;;;1.60;;
18338;SDS011;9295;44.484;11.240;2023-11-18T12:17:00;4.53;;;1.57;;
18338;SDS011;9295;44.484;11.240;2023-11-18T12:19:36;2.80;;;1.30;;
18338;SDS011;9295;44.484;11.240;2023-11-18T12:22:16;3.77;;;1.53;;
18338;SDS011;9295;44.484;11.240;2023-11-18T12:28:08;3.50;;;1.50;;
18338;SDS011;9295;44.484;11.240;2023-11-18T12:30:38;6.20;;;1.63;;
18338;SDS011;9295;44.484;11.240;2023-11-18T12:33:19;4.07;;;1.93;;
18338;SDS011;9295;44.484;11.240;2023-11-18T12:39:05;3.47;;;1.73;;
18338;SDS011;9295;44.484;11.240;2023-11-18T12:42:02;3.63;;;1.80;;
18338;SDS011;9295;44.484;11.240;2023-11-18T12:44:48;3.60;;;1.60;;
18338;SDS011;9295;44.484;11.240;2023-11-18T12:47:41;3.50;;;1.83;;
18338;SDS011;9295;44.484;11.240;2023-11-18T12:50:12;2.67;;;1.60;;
18338;SDS011;9295;44.484;11.240;2023-11-18T12:52:51;3.07;;;1.57;;
18338;SDS011;9295;44.484;11.240;2023-11-18T12:55:21;2.80;;;1.50;;
18338;SDS011;9295;44.484;11.240;2023-11-18T12:57:51;5.07;;;1.80;;
18338;SDS011;9295;44.484;11.240;2023-11-18T13:00:21;5.47;;;2.17;;
18338;SDS011;9295;44.484;11.240;2023-11-18T13:02:54;4.63;;;1.63;;
18338;SDS011;9295;44.484;11.240;2023-11-18T13:05:25;2.90;;;1.80;;
18338;SDS011;9295;44.484;11.240;2023-11-18T13:07:57;3.67;;;1.80;;
18338;SDS011;9295;44.484;11.240;2023-11-18T13:10:29;3.93;;;1.63;;
18338;SDS011;9295;44.484;11.240;2023-11-18T13:12:58;3.60;;;1.80;;
18338;SDS011;9295;44.484;11.240;2023-11-18T13:15:27;3.07;;;1.70;;
18338;SDS011;9295;44.484;11.240;2023-11-18T13:17:58;3.20;;;1.60;;
18338;SDS011;9295;44.484;11.240;2023-11-18T13:20:28;5.13;;;1.90;;
18338;SDS011;9295;44.484;11.240;2023-11-18T13:23:00;2.90;;;1.53;;
18338;SDS011;9295;44.484;11.240;2023-11-18T13:25:37;2.20;;;1.30;;
18338;SDS011;9295;44.484;11.240;2023-11-18T13:28:07;3.10;;;1.57;;
18338;SDS011;9295;44.484;11.240;2023-11-18T13:30:37;5.10;;;1.70;;
18338;SDS011;9295;44.484;11.240;2023-11-18T13:33:07;2.97;;;1.60;;
18338;SDS011;9295;44.484;11.240;2023-11-18T13:35:35;3.13;;;1.60;;
18338;SDS011;9295;44.484;11.240;2023-11-18T13:38:04;2.40;;;1.40;;
18338;SDS011;9295;44.484;11.240;2023-11-18T13:40:45;5.30;;;1.50;;
18338;SDS011;9295;44.484;11.240;2023-11-18T13:43:15;3.70;;;1.63;;
18338;SDS011;9295;44.484;11.240;2023-11-18T13:45:49;3.67;;;1.67;;
18338;SDS011;9295;44.484;11.240;2023-11-18T13:48:23;2.80;;;1.50;;
18338;SDS011;9295;44.484;11.240;2023-11-18T13:50:53;3.93;;;1.63;;
18338;SDS011;9295;44.484;11.240;2023-11-18T13:53:22;7.80;;;1.97;;
18338;SDS011;9295;44.484;11.240;2023-11-18T13:55:52;2.90;;;1.60;;
18338;SDS011;9295;44.484;11.240;2023-11-18T13:58:22;2.83;;;1.70;;
18338;SDS011;9295;44.484;11.240;2023-11-18T14:00:50;4.30;;;1.63;;
18338;SDS011;9295;44.484;11.240;2023-11-18T14:03:19;5.43;;;1.70;;
18338;SDS011;9295;44.484;11.240;2023-11-18T14:05:50;3.60;;;1.87;;
18338;SDS011;9295;44.484;11.240;2023-11-18T14:08:19;8.47;;;2.13;;
18338;SDS011;9295;44.484;11.240;2023-11-18T14:10:48;3.60;;;1.90;;
18338;SDS011;9295;44.484;11.240;2023-11-18T14:13:30;3.10;;;1.77;;
18338;SDS011;9295;44.484;11.240;2023-11-18T14:16:01;4.70;;;1.80;;
18338;SDS011;9295;44.484;11.240;2023-11-18T14:18:30;3.10;;;1.70;;
18338;SDS011;9295;44.484;11.240;2023-11-18T14:20:59;3.20;;;1.80;;
18338;SDS011;9295;44.484;11.240;2023-11-18T14:23:28;8.30;;;1.93;;
18338;SDS011;9295;44.484;11.240;2023-11-18T14:25:57;4.60;;;1.97;;
18338;SDS011;9295;44.484;11.240;2023-11-18T14:28:26;3.30;;;1.80;;
18338;SDS011;9295;44.484;11.240;2023-11-18T14:30:57;5.47;;;2.20;;
18338;SDS011;9295;44.484;11.240;2023-11-18T14:33:25;3.63;;;2.03;;
18338;SDS011;9295;44.484;11.240;2023-11-18T14:35:55;3.00;;;1.70;;
18338;SDS011;9295;44.484;11.240;2023-11-18T14:38:24;5.50;;;2.10;;
18338;SDS011;9295;44.484;11.240;2023-11-18T14:40:52;3.50;;;1.70;;
18338;SDS011;9295;44.484;11.240;2023-11-18T14:43:21;3.70;;;1.93;;
18338;SDS011;9295;44.484;11.240;2023-11-18T14:45:50;3.97;;;1.97;;
18338;SDS011;9295;44.484;11.240;2023-11-18T14:48:20;3.20;;;2.00;;
18338;SDS011;9295;44.484;11.240;2023-11-18T14:50:49;4.30;;;2.07;;
18338;SDS011;9295;44.484;11.240;2023-11-18T14:53:18;3.00;;;1.70;;
18338;SDS011;9295;44.484;11.240;2023-11-18T14:55:46;5.57;;;1.90;;
18338;SDS011;9295;44.484;11.240;2023-11-18T14:58:15;7.40;;;2.13;;
18338;SDS011;9295;44.484;11.240;2023-11-18T15:00:44;3.37;;;1.93;;
18338;SDS011;9295;44.484;11.240;2023-11-18T15:03:14;3.03;;;1.80;;
18338;SDS011;9295;44.484;11.240;2023-11-18T15:05:44;8.73;;;2.80;;
18338;SDS011;9295;44.484;11.240;2023-11-18T15:08:13;4.27;;;2.13;;
18338;SDS011;9295;44.484;11.240;2023-11-18T15:10:42;5.87;;;3.10;;
18338;SDS011;9295;44.484;11.240;2023-11-18T15:13:12;9.77;;;5.80;;
18338;SDS011;9295;44.484;11.240;2023-11-18T15:15:42;6.33;;;3.70;;
18338;SDS011;9295;44.484;11.240;2023-11-18T15:18:14;6.73;;;2.60;;
18338;SDS011;9295;44.484;11.240;2023-11-18T15:20:46;7.00;;;3.07;;